Ohio City, Ohio
Current Conditions -  °F | °C
As of 3:54 PM on Saturday 25 Oct 2014 (Local Time) from KAXV Reporting Station
Clear Clear  
Wind Chill: 72°   Ceiling: Unl
Heat Index: 72°   Visibility: 10mi
Dew Point: 48°   Wind: 13mph
Humidity: 43%   Direction: 280°W
Pressure: 29.87"   Gusts: 20mph
Location:  40.77°N, 84.62°W
Report Text: KAXV 251954Z AUTO 28011G17KT 10SM CLR 22/09 A2987 RMK AO2
Loading
Personal Weather Stations






























Interactive Weather Map
Tropical Storm Tracking
New forecast layout! Learn more

10-Day Weather Forecast

Advertisements
Track Severe Weather on mobile